createdAt,value
2022-08-11T00:01:25.753Z,0
2022-08-11T00:03:52.374Z,0
2022-08-11T00:06:17.506Z,0
2022-08-11T00:08:44.122Z,0
2022-08-11T00:11:10.738Z,0
2022-08-11T00:13:37.360Z,0
2022-08-11T00:16:03.988Z,0
2022-08-11T00:18:30.626Z,0
2022-08-11T00:20:57.236Z,0
2022-08-11T00:23:23.853Z,0
2022-08-11T00:25:50.481Z,0
2022-08-11T00:28:17.101Z,0
2022-08-11T00:30:43.723Z,0
2022-08-11T00:33:10.338Z,0
2022-08-11T00:38:03.592Z,0
2022-08-11T00:40:28.711Z,0
2022-08-11T00:42:55.334Z,0
2022-08-11T00:45:21.957Z,0
2022-08-11T00:47:48.590Z,0
2022-08-11T00:50:15.200Z,0
2022-08-11T00:52:41.832Z,0
2022-08-11T00:55:08.467Z,0
2022-08-11T00:57:35.069Z,0
2022-08-11T01:00:01.701Z,0
2022-08-11T01:02:28.324Z,0
2022-08-11T01:04:54.947Z,0
2022-08-11T01:07:21.566Z,0
2022-08-11T01:09:48.198Z,0
2022-08-11T01:12:13.322Z,0
2022-08-11T01:14:39.932Z,0
2022-08-11T01:17:06.569Z,0
2022-08-11T01:19:33.186Z,0
2022-08-11T01:21:59.802Z,0
2022-08-11T01:24:26.427Z,0
2022-08-11T01:26:53.052Z,0
2022-08-11T01:29:19.670Z,0
2022-08-11T01:31:46.309Z,0
2022-08-11T01:34:12.921Z,0
2022-08-11T01:36:39.541Z,0
2022-08-11T01:39:06.172Z,0
2022-08-11T01:41:32.781Z,0
2022-08-11T01:43:57.912Z,0
2022-08-11T01:46:24.529Z,0
2022-08-11T01:48:51.167Z,0
2022-08-11T01:51:17.773Z,0
2022-08-11T01:53:44.402Z,0
2022-08-11T01:56:11.031Z,0
2022-08-11T01:58:37.640Z,0
2022-08-11T02:01:04.273Z,0
2022-08-11T02:05:57.520Z,0
2022-08-11T02:08:24.141Z,0
2022-08-11T02:10:50.753Z,0
2022-08-11T02:13:17.378Z,0
2022-08-11T02:15:42.519Z,0
2022-08-11T02:18:09.129Z,0
2022-08-11T02:20:35.773Z,0
2022-08-11T02:23:02.385Z,0
2022-08-11T02:25:28.992Z,0
2022-08-11T02:27:55.621Z,0
2022-08-11T02:30:22.250Z,0
2022-08-11T02:32:48.882Z,0
2022-08-11T02:35:15.488Z,0
2022-08-11T02:37:42.115Z,0
2022-08-11T02:40:08.733Z,0
2022-08-11T02:42:35.369Z,0
2022-08-11T02:45:01.978Z,0
2022-08-11T02:47:27.103Z,0
2022-08-11T02:49:53.715Z,0
2022-08-11T02:52:20.347Z,0
2022-08-11T02:54:46.960Z,0
2022-08-11T02:57:13.587Z,0
2022-08-11T02:59:40.219Z,0
2022-08-11T03:02:06.834Z,0
2022-08-11T03:04:33.460Z,0
2022-08-11T03:07:00.084Z,0
2022-08-11T03:09:26.698Z,0
2022-08-11T03:11:53.326Z,0
2022-08-11T03:14:19.949Z,0
2022-08-11T03:16:46.580Z,0
2022-08-11T03:19:11.696Z,0
2022-08-11T03:21:38.326Z,0
2022-08-11T03:24:04.954Z,0
2022-08-11T03:26:31.567Z,0
2022-08-11T03:28:58.180Z,0
2022-08-11T03:31:24.818Z,0
2022-08-11T03:33:51.426Z,0
2022-08-11T03:36:18.048Z,0
2022-08-11T03:38:44.681Z,0
2022-08-11T03:41:11.290Z,4
2022-08-11T03:43:37.922Z,4
2022-08-11T03:46:04.564Z,4
2022-08-11T03:48:31.215Z,8
2022-08-11T03:50:56.305Z,8
2022-08-11T03:53:22.921Z,16
2022-08-11T03:55:49.541Z,20
2022-08-11T03:58:16.167Z,28
2022-08-11T04:00:42.788Z,36
2022-08-11T04:03:09.404Z,48
2022-08-11T04:05:36.043Z,64
2022-08-11T04:08:02.656Z,84
2022-08-11T04:10:29.286Z,104
2022-08-11T04:12:55.895Z,120
2022-08-11T04:15:22.572Z,148
2022-08-11T04:17:49.161Z,172
2022-08-11T04:20:15.773Z,204
2022-08-11T04:22:40.907Z,236
2022-08-11T04:25:07.534Z,273
2022-08-11T04:27:34.164Z,313
2022-08-11T04:32:27.392Z,393
2022-08-11T04:34:54.008Z,433
2022-08-11T04:37:20.629Z,477
2022-08-11T04:39:47.254Z,522
2022-08-11T04:42:12.387Z,566
2022-08-11T04:44:39.018Z,610
2022-08-11T04:47:05.638Z,654
2022-08-11T04:49:32.257Z,698
2022-08-11T04:51:58.872Z,742
2022-08-11T04:54:25.502Z,787
2022-08-11T04:56:52.119Z,827
2022-08-11T04:59:18.753Z,863
2022-08-11T05:01:45.365Z,899
2022-08-11T05:04:11.983Z,943
2022-08-11T05:06:38.618Z,983
2022-08-11T05:09:05.245Z,1024
2022-08-11T05:11:31.848Z,1076
2022-08-11T05:13:56.991Z,1124
2022-08-11T05:16:23.602Z,1160
2022-08-11T05:18:50.220Z,1196
2022-08-11T05:21:16.851Z,1236
2022-08-11T05:23:43.471Z,1272
2022-08-11T05:26:10.092Z,1317
2022-08-11T05:28:36.714Z,1349
2022-08-11T05:31:03.350Z,1369
2022-08-11T05:33:29.958Z,1397
2022-08-11T05:35:56.596Z,1433
2022-08-11T05:38:23.205Z,1469
2022-08-11T05:40:49.831Z,1489
2022-08-11T05:43:16.455Z,1525
2022-08-11T05:45:41.576Z,1562
2022-08-11T05:48:08.199Z,1598
2022-08-11T05:50:34.834Z,1626
2022-08-11T05:53:01.444Z,1662
2022-08-11T05:55:28.080Z,1710
2022-08-11T05:57:54.698Z,1746
2022-08-11T06:00:21.333Z,1782
2022-08-11T06:02:47.951Z,1827
2022-08-11T06:05:14.552Z,1875
2022-08-11T06:07:41.178Z,1919
2022-08-11T06:10:07.798Z,1971
2022-08-11T06:12:34.435Z,2011
2022-08-11T06:15:01.049Z,2060
2022-08-11T06:17:26.174Z,2100
2022-08-11T06:19:52.805Z,2136
2022-08-11T06:22:19.434Z,2184
2022-08-11T06:24:46.046Z,2228
2022-08-11T06:27:12.670Z,2280
2022-08-11T06:29:39.296Z,2341
2022-08-11T06:32:05.916Z,2385
2022-08-11T06:34:32.541Z,2473
2022-08-11T06:36:59.153Z,2485
2022-08-11T06:39:25.776Z,2533
2022-08-11T06:41:52.421Z,2594
2022-08-11T06:44:19.021Z,2638
2022-08-11T06:46:45.656Z,2706
2022-08-11T06:49:10.774Z,2762
2022-08-11T06:51:37.395Z,2835
2022-08-11T06:54:04.049Z,2891
2022-08-11T06:56:30.639Z,2947
2022-08-11T06:58:57.269Z,3019
2022-08-11T07:01:23.887Z,3112
2022-08-11T07:03:50.517Z,3634
2022-08-11T07:06:17.133Z,3662
2022-08-11T07:08:43.763Z,5405
2022-08-11T07:11:10.383Z,21106
2022-08-11T07:13:37.010Z,34117
2022-08-11T07:16:03.617Z,38132
2022-08-11T07:18:30.245Z,37747
2022-08-11T07:20:55.372Z,37618
2022-08-11T07:23:21.989Z,41698
2022-08-11T07:25:48.628Z,42694
2022-08-11T07:28:15.231Z,43337
2022-08-11T07:30:41.871Z,44140
2022-08-11T07:33:08.482Z,46132
2022-08-11T07:35:35.104Z,46421
2022-08-11T07:38:01.733Z,46581
2022-08-11T07:40:28.355Z,45939
2022-08-11T07:42:54.978Z,45875
2022-08-11T07:45:21.595Z,43626
2022-08-11T07:47:48.250Z,47770
2022-08-11T07:50:14.854Z,49537
2022-08-11T07:52:39.996Z,49858
2022-08-11T07:55:06.606Z,50051
2022-08-11T07:57:33.221Z,52557
2022-08-11T07:59:59.857Z,55320
2022-08-11T08:02:26.471Z,56733
2022-08-11T08:04:53.100Z,50983
2022-08-11T08:07:19.710Z,51368
2022-08-11T08:12:12.962Z,59110
2022-08-11T08:14:39.598Z,52942
2022-08-11T08:17:06.206Z,51015
2022-08-11T08:19:32.831Z,54677
2022-08-11T08:21:59.449Z,58179
2022-08-11T08:24:26.087Z,58050
2022-08-11T08:26:51.219Z,57568
2022-08-11T08:29:17.817Z,59046
2022-08-11T08:31:44.457Z,62741
2022-08-11T08:34:11.096Z,58950
2022-08-11T08:36:37.686Z,62548
2022-08-11T08:39:04.327Z,61102
2022-08-11T08:43:57.570Z,60620
2022-08-11T08:46:24.189Z,60010
2022-08-11T08:48:50.798Z,62194
2022-08-11T08:51:17.486Z,62676
2022-08-11T08:53:44.048Z,64572
2022-08-11T08:56:10.679Z,67174
2022-08-11T08:58:35.811Z,64218
2022-08-11T09:01:02.431Z,72057
2022-08-11T09:03:29.053Z,64443
2022-08-11T09:05:55.665Z,65793
2022-08-11T09:08:22.300Z,58853
2022-08-11T09:10:48.907Z,62259
2022-08-11T09:13:15.545Z,59978
2022-08-11T09:15:42.175Z,64154
2022-08-11T09:18:08.794Z,65214
2022-08-11T09:20:35.414Z,67849
2022-08-11T09:23:02.034Z,68844
2022-08-11T09:25:28.652Z,64989
2022-08-11T09:27:55.273Z,64475
2022-08-11T09:30:20.420Z,64507
2022-08-11T09:32:47.040Z,69230
2022-08-11T09:35:13.658Z,73503
2022-08-11T09:37:40.288Z,69712
2022-08-11T09:40:06.903Z,67945
2022-08-11T09:42:33.525Z,75270
2022-08-11T09:45:00.142Z,71318
2022-08-11T09:47:26.766Z,81952
2022-08-11T09:49:53.387Z,86128
2022-08-11T09:52:20.024Z,89790
2022-08-11T09:54:46.637Z,82273
2022-08-11T09:57:13.264Z,86513
2022-08-11T10:02:06.514Z,77036
2022-08-11T10:04:31.643Z,66724
2022-08-11T10:06:58.273Z,63255
2022-08-11T10:11:51.531Z,6216
2022-08-11T10:14:18.143Z,5842
2022-08-11T10:16:44.772Z,5686
2022-08-11T10:19:11.389Z,5589
2022-08-11T10:21:38.020Z,5521
2022-08-11T10:24:04.647Z,5051
2022-08-11T10:26:31.260Z,4059
2022-08-11T10:28:57.876Z,3485
2022-08-11T10:33:51.148Z,3361
2022-08-11T10:36:17.750Z,3304
2022-08-11T10:38:42.902Z,3401
2022-08-11T10:41:08.022Z,3240
2022-08-11T10:43:34.628Z,3208
2022-08-11T10:46:01.254Z,3112
2022-08-11T10:48:27.882Z,3035
2022-08-11T10:50:54.508Z,3011
2022-08-11T10:53:21.133Z,2955
2022-08-11T10:55:47.750Z,2903
2022-08-11T10:58:14.385Z,2923
2022-08-11T11:00:40.998Z,2883
2022-08-11T11:03:07.632Z,2899
2022-08-11T11:05:34.249Z,2810
2022-08-11T11:07:59.389Z,2742
2022-08-11T11:10:24.515Z,2642
2022-08-11T11:12:51.132Z,2545
2022-08-11T11:15:17.768Z,2690
2022-08-11T11:17:44.372Z,2541
2022-08-11T11:20:11.003Z,2541
2022-08-11T11:22:37.623Z,2521
2022-08-11T11:25:04.251Z,2477
2022-08-11T11:27:30.882Z,2497
2022-08-11T11:29:57.496Z,2469
2022-08-11T11:32:24.114Z,2425
2022-08-11T11:34:50.743Z,2413
2022-08-11T11:37:17.379Z,2353
2022-08-11T11:39:44.004Z,2313
2022-08-11T11:42:09.123Z,2288
2022-08-11T11:44:35.747Z,2284
2022-08-11T11:47:02.377Z,2264
2022-08-11T11:49:28.997Z,2236
2022-08-11T11:51:55.627Z,2188
2022-08-11T11:54:22.236Z,2196
2022-08-11T11:56:48.867Z,2204
2022-08-11T11:59:15.493Z,2180
2022-08-11T12:01:42.112Z,2168
2022-08-11T12:04:08.773Z,2096
2022-08-11T12:06:35.374Z,2064
2022-08-11T12:09:01.989Z,2043
2022-08-11T12:11:28.613Z,2007
2022-08-11T12:13:55.242Z,2003
2022-08-11T12:16:20.370Z,1959
2022-08-11T12:18:46.983Z,1903
2022-08-11T12:21:13.609Z,1943
2022-08-11T12:23:40.221Z,1899
2022-08-11T12:26:06.854Z,1887
2022-08-11T12:28:33.477Z,1855
2022-08-11T12:31:00.109Z,1815
2022-08-11T12:35:53.353Z,1790
2022-08-11T12:38:19.966Z,1762
2022-08-11T12:40:46.597Z,1766
2022-08-11T12:43:13.234Z,1698
2022-08-11T12:45:39.842Z,1726
2022-08-11T12:48:06.480Z,1686
2022-08-11T12:50:31.591Z,1702
2022-08-11T12:52:56.745Z,1674
2022-08-11T12:55:23.354Z,1650
2022-08-11T12:57:49.981Z,1622
2022-08-11T13:00:16.599Z,1610
2022-08-11T13:02:43.288Z,1590
2022-08-11T13:05:09.865Z,1586
2022-08-11T13:07:36.476Z,1562
2022-08-11T13:12:29.729Z,1529
2022-08-11T13:14:56.351Z,1521
2022-08-11T13:17:22.973Z,1513
2022-08-11T13:19:49.588Z,1509
2022-08-11T13:22:16.233Z,1489
2022-08-11T13:24:41.362Z,1493
2022-08-11T13:27:07.973Z,1501
2022-08-11T13:29:34.615Z,1489
2022-08-11T13:32:01.234Z,1501
2022-08-11T13:34:27.838Z,1509
2022-08-11T13:36:54.484Z,1505
2022-08-11T13:39:21.102Z,1469
2022-08-11T13:41:47.728Z,1473
2022-08-11T13:44:14.348Z,1425
2022-08-11T13:46:40.967Z,1453
2022-08-11T13:49:07.589Z,1449
2022-08-11T13:51:34.217Z,1485
2022-08-11T13:54:00.847Z,1493
2022-08-11T13:56:25.965Z,1505
2022-08-11T13:58:52.601Z,1566
2022-08-11T14:01:19.223Z,1493
2022-08-11T14:03:45.843Z,1453
2022-08-11T14:06:12.478Z,1465
2022-08-11T14:08:39.089Z,1497
2022-08-11T14:11:05.721Z,1538
2022-08-11T14:13:32.346Z,1570
2022-08-11T14:15:58.970Z,1590
2022-08-11T14:18:25.598Z,1606
2022-08-11T14:20:52.213Z,1594
2022-08-11T14:23:18.846Z,1562
2022-08-11T14:25:45.462Z,1586
2022-08-11T14:28:10.600Z,1622
2022-08-11T14:30:37.215Z,1590
2022-08-11T14:33:03.850Z,1513
2022-08-11T14:35:30.462Z,1473
2022-08-11T14:37:57.085Z,1433
2022-08-11T14:40:23.717Z,1513
2022-08-11T14:42:50.330Z,1533
2022-08-11T14:45:16.971Z,1521
2022-08-11T14:47:43.580Z,1465
2022-08-11T14:50:10.202Z,1429
2022-08-11T14:52:36.832Z,1509
2022-08-11T14:55:03.465Z,1461
2022-08-11T14:57:30.076Z,1546
2022-08-11T14:59:56.699Z,1529
2022-08-11T15:02:21.829Z,1513
2022-08-11T15:04:48.467Z,1594
2022-08-11T15:07:15.090Z,1602
2022-08-11T15:09:41.704Z,1558
2022-08-11T15:12:08.339Z,1465
2022-08-11T15:14:34.956Z,1329
2022-08-11T15:17:01.578Z,1244
2022-08-11T15:19:28.207Z,1244
2022-08-11T15:21:54.823Z,1224
2022-08-11T15:24:21.447Z,1236
2022-08-11T15:26:48.062Z,1160
2022-08-11T15:29:14.696Z,1116
2022-08-11T15:31:41.349Z,1084
2022-08-11T15:34:06.451Z,1076
2022-08-11T15:36:33.081Z,1128
2022-08-11T15:38:59.702Z,1160
2022-08-11T15:41:26.323Z,1156
2022-08-11T15:43:52.948Z,1092
2022-08-11T15:46:19.563Z,1011
2022-08-11T15:48:46.184Z,1015
2022-08-11T15:51:12.806Z,1048
2022-08-11T15:53:39.437Z,1056
2022-08-11T15:56:06.062Z,1044
2022-08-11T15:58:32.696Z,1028
2022-08-11T16:00:59.305Z,1040
2022-08-11T16:03:25.936Z,1036
2022-08-11T16:05:51.083Z,979
2022-08-11T16:08:17.686Z,987
2022-08-11T16:10:44.302Z,955
2022-08-11T16:13:10.927Z,995
2022-08-11T16:15:37.546Z,975
2022-08-11T16:18:04.181Z,963
2022-08-11T16:20:30.801Z,991
2022-08-11T16:22:57.425Z,979
2022-08-11T16:25:24.050Z,1015
2022-08-11T16:27:50.694Z,987
2022-08-11T16:30:17.300Z,947
2022-08-11T16:32:43.916Z,935
2022-08-11T16:35:10.535Z,975
2022-08-11T16:37:35.669Z,943
2022-08-11T16:40:02.290Z,931
2022-08-11T16:42:28.923Z,919
2022-08-11T16:44:55.523Z,899
2022-08-11T16:47:22.178Z,875
2022-08-11T16:49:48.773Z,879
2022-08-11T16:52:15.404Z,895
2022-08-11T16:54:41.771Z,875
2022-08-11T16:57:08.395Z,815
2022-08-11T16:59:35.023Z,795
2022-08-11T17:02:01.640Z,815
2022-08-11T17:04:28.277Z,807
2022-08-11T17:06:54.890Z,766
2022-08-11T17:09:20.021Z,762
2022-08-11T17:11:46.649Z,738
2022-08-11T17:14:13.264Z,726
2022-08-11T17:16:39.881Z,730
2022-08-11T17:19:06.510Z,722
2022-08-11T17:21:33.139Z,742
2022-08-11T17:23:59.755Z,742
2022-08-11T17:26:26.382Z,718
2022-08-11T17:28:52.996Z,698
2022-08-11T17:31:19.648Z,670
2022-08-11T17:33:46.264Z,658
2022-08-11T17:36:12.878Z,650
2022-08-11T17:38:39.496Z,654
2022-08-11T17:41:06.147Z,646
2022-08-11T17:43:31.249Z,642
2022-08-11T17:45:57.877Z,610
2022-08-11T17:48:24.520Z,590
2022-08-11T17:50:51.134Z,566
2022-08-11T17:53:17.751Z,546
2022-08-11T17:55:44.395Z,526
2022-08-11T17:58:11.011Z,501
2022-08-11T18:00:37.628Z,469
2022-08-11T18:03:04.247Z,445
2022-08-11T18:05:30.873Z,425
2022-08-11T18:07:57.484Z,413
2022-08-11T18:12:50.741Z,349
2022-08-11T18:15:15.863Z,317
2022-08-11T18:17:42.492Z,293
2022-08-11T18:20:09.112Z,265
2022-08-11T18:22:35.746Z,244
2022-08-11T18:25:02.364Z,216
2022-08-11T18:27:28.990Z,200
2022-08-11T18:29:55.608Z,172
2022-08-11T18:32:22.226Z,148
2022-08-11T18:34:48.851Z,120
2022-08-11T18:37:15.477Z,104
2022-08-11T18:39:42.115Z,88
2022-08-11T18:42:08.727Z,76
2022-08-11T18:44:35.347Z,60
2022-08-11T18:47:00.482Z,48
2022-08-11T18:49:27.103Z,36
2022-08-11T18:51:53.720Z,32
2022-08-11T18:54:20.375Z,24
2022-08-11T18:56:46.982Z,16
2022-08-11T18:59:13.601Z,12
2022-08-11T19:01:40.212Z,4
2022-08-11T19:04:06.834Z,4
2022-08-11T19:06:33.457Z,4
2022-08-11T19:09:00.080Z,4
2022-08-11T19:11:26.704Z,0
2022-08-11T19:13:53.342Z,0
2022-08-11T19:16:19.959Z,0
2022-08-11T19:18:45.092Z,0
2022-08-11T19:21:11.711Z,0
2022-08-11T19:23:38.341Z,0
2022-08-11T19:26:04.957Z,0
2022-08-11T19:28:31.567Z,0
2022-08-11T19:30:58.196Z,0
2022-08-11T19:33:24.822Z,0
2022-08-11T19:35:51.451Z,0
2022-08-11T19:38:17.094Z,0
2022-08-11T19:40:43.710Z,0
2022-08-11T19:43:10.322Z,0
2022-08-11T19:45:36.952Z,0
2022-08-11T19:48:03.565Z,0
2022-08-11T19:50:30.187Z,0
2022-08-11T19:52:55.331Z,0
2022-08-11T19:55:21.946Z,0
2022-08-11T19:57:48.574Z,0
2022-08-11T20:00:15.193Z,0
2022-08-11T20:02:41.827Z,0
2022-08-11T20:05:08.445Z,0
2022-08-11T20:07:35.059Z,0
2022-08-11T20:10:01.696Z,0
2022-08-11T20:12:28.302Z,0
2022-08-11T20:14:54.923Z,0
2022-08-11T20:17:21.556Z,0
2022-08-11T20:19:48.171Z,0
2022-08-11T20:24:41.421Z,0
2022-08-11T20:27:06.549Z,0
2022-08-11T20:29:33.176Z,0
2022-08-11T20:31:59.789Z,0
2022-08-11T20:34:26.427Z,0
2022-08-11T20:36:53.040Z,0
2022-08-11T20:39:19.658Z,0
2022-08-11T20:41:46.296Z,0
2022-08-11T20:44:12.911Z,0
2022-08-11T20:46:39.544Z,0
2022-08-11T20:49:06.173Z,0
2022-08-11T20:51:32.798Z,0
2022-08-11T20:53:59.436Z,0
2022-08-11T20:56:26.055Z,0
2022-08-11T20:58:51.172Z,0
2022-08-11T21:01:17.795Z,0
2022-08-11T21:03:42.915Z,0
2022-08-11T21:06:09.551Z,0
2022-08-11T21:08:36.163Z,0
2022-08-11T21:11:02.786Z,0
2022-08-11T21:13:29.406Z,0
2022-08-11T21:15:56.014Z,0
2022-08-11T21:18:22.666Z,0
2022-08-11T21:20:49.268Z,0
2022-08-11T21:23:15.901Z,0
2022-08-11T21:25:42.510Z,0
2022-08-11T21:28:09.141Z,0
2022-08-11T21:30:35.754Z,0
2022-08-11T21:33:02.386Z,0
2022-08-11T21:35:27.528Z,0
2022-08-11T21:37:54.131Z,0
2022-08-11T21:40:20.549Z,0
2022-08-11T21:42:47.156Z,0
2022-08-11T21:45:13.788Z,0
2022-08-11T21:47:40.418Z,0
2022-08-11T21:50:07.044Z,0
2022-08-11T21:52:33.653Z,0
2022-08-11T21:55:00.295Z,0
2022-08-11T21:57:26.896Z,0
2022-08-11T21:59:53.530Z,0
2022-08-11T22:02:20.148Z,0
2022-08-11T22:07:13.393Z,0
2022-08-11T22:09:38.516Z,0
2022-08-11T22:12:05.142Z,0
2022-08-11T22:14:31.781Z,0
2022-08-11T22:16:58.398Z,0
2022-08-11T22:19:25.023Z,0
2022-08-11T22:21:51.637Z,0
2022-08-11T22:24:18.262Z,0
2022-08-11T22:26:44.876Z,0
2022-08-11T22:29:11.499Z,0
2022-08-11T22:31:38.126Z,0
2022-08-11T22:34:04.775Z,0
2022-08-11T22:36:31.358Z,0
2022-08-11T22:38:57.991Z,0
2022-08-11T22:41:23.128Z,0
2022-08-11T22:43:49.737Z,0
2022-08-11T22:46:16.371Z,0
2022-08-11T22:48:43.002Z,0
2022-08-11T22:51:09.604Z,0
2022-08-11T22:53:36.253Z,0
2022-08-11T22:56:02.855Z,0
2022-08-11T22:58:29.471Z,0
2022-08-11T23:00:55.255Z,0
2022-08-11T23:03:21.876Z,0
2022-08-11T23:05:48.508Z,0
2022-08-11T23:08:15.139Z,0
2022-08-11T23:10:41.740Z,0
2022-08-11T23:13:06.878Z,0
2022-08-11T23:15:33.495Z,0
2022-08-11T23:18:00.125Z,0
2022-08-11T23:20:26.751Z,0
2022-08-11T23:22:53.376Z,0
2022-08-11T23:25:19.999Z,0
2022-08-11T23:27:46.616Z,0
2022-08-11T23:30:13.235Z,0
2022-08-11T23:35:06.485Z,0
2022-08-11T23:37:33.112Z,0
2022-08-11T23:39:59.732Z,0
2022-08-11T23:42:26.354Z,0
2022-08-11T23:44:51.479Z,0
2022-08-11T23:47:18.102Z,0
2022-08-11T23:49:44.727Z,0
2022-08-11T23:52:11.361Z,0
2022-08-11T23:54:37.973Z,0
2022-08-11T23:57:04.594Z,0
2022-08-11T23:59:31.224Z,0
